| time (UTC) | temp C | wind direction | speed KPH | gust KPH | rain 1hr cm | rain 24hr cm | rain mn cm | humidity % | barometer mb |
| 20260507161854 | 18 | 114 | 3.2 | 14.5 | 0.00 | 0.00 | 0.00 | 58 | 1010.5 |
| 20260507161848 | 18 | 113 | 0.0 | 6.4 | 0.00 | 0.00 | 0.00 | 59 | 1010.5 |
| 20260507160409 | 18 | 114 | 6.4 | 14.5 | 0.00 | 0.00 | 0.00 | 59 | 1010.5 |
| 20260507155907 | 18 | 87 | 6.4 | 14.5 | 0.00 | 0.00 | 0.00 | 59 | 1010.5 |
| 20260507155722 | 18 | 85 | 3.2 | 9.7 | 0.00 | 0.00 | 0.00 | 58 | 1010.5 |
| 20260507154907 | 18 | 117 | 3.2 | 9.7 | 0.00 | 0.00 | 0.00 | 58 | 1010.6 |
| 20260507154407 | 19 | 110 | 0.0 | 4.8 | 0.00 | 0.00 | 0.00 | 59 | 1010.6 |
| 20260507153907 | 19 | 109 | 1.6 | 8.0 | 0.00 | 0.00 | 0.00 | 58 | 1010.6 |
| 20260507153721 | 19 | 85 | 1.6 | 8.0 | 0.00 | 0.00 | 0.00 | 59 | 1010.6 |
| 20260507152908 | 19 | 86 | 0.0 | 8.0 | 0.00 | 0.00 | 0.00 | 59 | 1010.6 |
| 20260507152408 | 19 | 97 | 3.2 | 9.7 | 0.00 | 0.00 | 0.00 | 57 | 1010.5 |
| 20260507151908 | 19 | 133 | 3.2 | 11.3 | 0.00 | 0.00 | 0.00 | 58 | 1010.5 |
| 20260507151408 | 20 | 106 | 3.2 | 11.3 | 0.00 | 0.00 | 0.00 | 57 | 1010.6 |
| 20260507151217 | 20 | 92 | 3.2 | 6.4 | 0.00 | 0.00 | 0.00 | 56 | 1010.6 |
| 20260507150722 | 20 | 131 | 1.6 | 4.8 | 0.00 | 0.00 | 0.00 | 57 | 1010.6 |
| 20260507145907 | 20 | 121 | 0.0 | 9.7 | 0.00 | 0.00 | 0.00 | 57 | 1010.7 |
| 20260507145538 | 20 | 100 | 4.8 | 16.1 | 0.00 | 0.00 | 0.00 | 60 | 1010.7 |
| 20260507145507 | 20 | 111 | 4.8 | 16.1 | 0.00 | 0.00 | 0.00 | 56 | 1010.7 |
| 20260507144408 | 20 | 100 | 4.8 | 16.1 | 0.00 | 0.00 | 0.00 | 57 | 1010.6 |
| 20260507143908 | 20 | 120 | 6.4 | 11.3 | 0.00 | 0.00 | 0.00 | 54 | 1010.8 |
| 20260507143408 | 20 | 114 | 4.8 | 9.7 | 0.00 | 0.00 | 0.00 | 55 | 1010.8 |
| 20260507143214 | 20 | 68 | 3.2 | 9.7 | 0.00 | 0.00 | 0.00 | 55 | 1010.9 |
| 20260507142719 | 20 | 83 | 1.6 | 9.7 | 0.00 | 0.00 | 0.00 | 57 | 1011.0 |
| 20260507141907 | 20 | 106 | 6.4 | 9.7 | 0.00 | 0.00 | 0.00 | 54 | 1010.9 |
| 20260507141717 | 20 | 16 | 0.0 | 4.8 | 0.00 | 0.00 | 0.00 | 56 | 1010.9 |
| 20260507140909 | 20 | 92 | 1.6 | 4.8 | 0.00 | 0.00 | 0.00 | 59 | 1011.0 |
| 20260507140408 | 20 | 87 | 1.6 | 4.8 | 0.00 | 0.00 | 0.00 | 55 | 1011.1 |
| 20260507135906 | 20 | 23 | 0.0 | 3.2 | 0.00 | 0.00 | 0.00 | 55 | 1011.1 |
| 20260507135407 | 20 | 113 | 0.0 | 6.4 | 0.00 | 0.00 | 0.00 | 56 | 1011.1 |
| 20260507135218 | 20 | 96 | 3.2 | 6.4 | 0.00 | 0.00 | 0.00 | 55 | 1011.3 |
| 20260507134406 | 20 | 336 | 1.6 | 8.0 | 0.00 | 0.00 | 0.00 | 57 | 1011.3 |
| 20260507134218 | 20 | 89 | 4.8 | 8.0 | 0.00 | 0.00 | 0.00 | 54 | 1011.4 |
| 20260507133406 | 20 | 310 | 0.0 | 1.6 | 0.00 | 0.00 | 0.00 | 56 | 1011.5 |
| 20260507132906 | 20 | 125 | 0.0 | 3.2 | 0.00 | 0.00 | 0.00 | 58 | 1011.5 |
| 20260507132408 | 20 | 212 | 1.6 | 8.0 | 0.00 | 0.00 | 0.00 | 58 | 1011.5 |
| 20260507131906 | 19 | 324 | 0.0 | 11.3 | 0.00 | 0.00 | 0.00 | 59 | 1011.5 |
| 20260507131407 | 19 | 137 | 6.4 | 11.3 | 0.00 | 0.00 | 0.00 | 56 | 1011.5 |
| 20260507130905 | 19 | 113 | 1.6 | 8.0 | 0.00 | 0.00 | 0.00 | 56 | 1011.6 |
| 20260507130407 | 20 | 110 | 3.2 | 8.0 | 0.00 | 0.00 | 0.00 | 56 | 1011.9 |
| 20260507125906 | 20 | 66 | 1.6 | 14.5 | 0.00 | 0.00 | 0.00 | 57 | 1011.9 |
| 20260507125404 | 19 | 68 | 0.0 | 14.5 | 0.00 | 0.00 | 0.00 | 58 | 1012.0 |
| 20260507124905 | 19 | 131 | 6.4 | 11.3 | 0.00 | 0.00 | 0.00 | 57 | 1012.0 |
| 20260507124404 | 20 | 111 | 1.6 | 4.8 | 0.00 | 0.00 | 0.00 | 57 | 1012.1 |
| 20260507123905 | 20 | 121 | 0.0 | 3.2 | 0.00 | 0.00 | 0.00 | 56 | 1012.2 |
| 20260507123405 | 19 | 252 | 0.0 | 11.3 | 0.00 | 0.00 | 0.00 | 60 | 1012.2 |
| 20260507122905 | 19 | 58 | 4.8 | 11.3 | 0.00 | 0.00 | 0.00 | 58 | 1012.3 |
| 20260507122403 | 20 | 341 | 1.6 | 9.7 | 0.00 | 0.00 | 0.00 | 57 | 1012.2 |
| 20260507121904 | 19 | 58 | 0.0 | 9.7 | 0.00 | 0.00 | 0.00 | 61 | 1012.2 |
| 20260507121404 | 19 | 102 | 6.4 | 9.7 | 0.00 | 0.00 | 0.00 | 57 | 1012.3 |
| 20260507120916 | 19 | 117 | 0.0 | 4.8 | 0.00 | 0.00 | 0.00 | 62 | 1012.4 |
| 20260507120403 | 19 | 216 | 0.0 | 6.4 | 0.00 | 0.00 | 0.00 | 59 | 1012.4 |
| 20260507115903 | 18 | 82 | 0.0 | 14.5 | 0.00 | 0.00 | 0.00 | 64 | 1012.4 |
| 20260507115404 | 18 | 87 | 3.2 | 14.5 | 0.00 | 0.00 | 0.00 | 60 | 1012.5 |
| 20260507115214 | 18 | 76 | 1.6 | 8.0 | 0.00 | 0.00 | 0.00 | 60 | 1012.6 |
| 20260507114711 | 18 | 100 | 3.2 | 6.4 | 0.00 | 0.00 | 0.00 | 61 | 1012.8 |
| 20260507113902 | 18 | 94 | 0.0 | 9.7 | 0.00 | 0.00 | 0.00 | 59 | 1012.8 |
| 20260507113403 | 18 | 75 | 0.0 | 9.7 | 0.00 | 0.00 | 0.00 | 60 | 1012.9 |
| 20260507112902 | 18 | 106 | 3.2 | 9.7 | 0.00 | 0.00 | 0.00 | 60 | 1012.9 |
| 20260507112402 | 17 | 106 | 0.0 | 9.7 | 0.00 | 0.00 | 0.00 | 62 | 1013.0 |
| 20260507111902 | 17 | 106 | 6.4 | 14.5 | 0.00 | 0.00 | 0.00 | 57 | 1013.1 |
| 20260507111707 | 17 | 120 | 8.0 | 14.5 | 0.00 | 0.00 | 0.00 | 58 | 1013.0 |
| 20260507110916 | 18 | 100 | 0.0 | 6.4 | 0.00 | 0.00 | 0.00 | 64 | 1013.1 |
| 20260507110401 | 17 | 102 | 3.2 | 6.4 | 0.00 | 0.00 | 0.00 | 59 | 1013.1 |
| 20260507105903 | 18 | 82 | 0.0 | 4.8 | 0.00 | 0.00 | 0.00 | 64 | 1013.3 |
| 20260507105401 | 17 | 331 | 0.0 | 4.8 | 0.00 | 0.00 | 0.00 | 63 | 1013.3 |
| 20260507104901 | 17 | 114 | 0.0 | 3.2 | 0.00 | 0.00 | 0.00 | 68 | 1013.2 |
| 20260507104401 | 17 | 134 | 0.0 | 3.2 | 0.00 | 0.00 | 0.00 | 65 | 1013.3 |
| 20260507104209 | 17 | 227 | 1.6 | 4.8 | 0.00 | 0.00 | 0.00 | 62 | 1013.3 |
| 20260507103402 | 17 | 69 | 0.0 | 4.8 | 0.00 | 0.00 | 0.00 | 67 | 1013.4 |
| 20260507102901 | 16 | 118 | 1.6 | 6.4 | 0.00 | 0.00 | 0.00 | 69 | 1013.4 |
| 20260507102707 | 16 | 94 | 1.6 | 6.4 | 0.00 | 0.00 | 0.00 | 66 | 1013.4 |
| 20260507101903 | 16 | 109 | 3.2 | 8.0 | 0.00 | 0.00 | 0.00 | 65 | 1013.4 |
| 20260507101401 | 16 | 111 | 4.8 | 8.0 | 0.00 | 0.00 | 0.00 | 62 | 1013.4 |
| 20260507100901 | 16 | 133 | 1.6 | 9.7 | 0.00 | 0.00 | 0.00 | 64 | 1013.4 |
| 20260507100400 | 16 | 96 | 3.2 | 9.7 | 0.00 | 0.00 | 0.00 | 62 | 1013.5 |
| 20260507095900 | 16 | 92 | 6.4 | 8.0 | 0.00 | 0.00 | 0.00 | 63 | 1013.5 |
| 20260507095401 | 17 | 116 | 4.8 | 8.0 | 0.00 | 0.00 | 0.00 | 65 | 1013.5 |
| 20260507094901 | 16 | 80 | 0.0 | 6.4 | 0.00 | 0.00 | 0.00 | 71 | 1013.5 |
| 20260507094709 | 16 | 116 | 4.8 | 9.7 | 0.00 | 0.00 | 0.00 | 66 | 1013.5 |
| 20260507093901 | 16 | 69 | 1.6 | 9.7 | 0.00 | 0.00 | 0.00 | 68 | 1013.6 |
| 20260507093400 | 16 | 96 | 3.2 | 8.0 | 0.00 | 0.00 | 0.00 | 68 | 1013.6 |
| 20260507092859 | 16 | 71 | 1.6 | 6.4 | 0.00 | 0.00 | 0.00 | 68 | 1013.5 |
| 20260507092400 | 16 | 121 | 3.2 | 8.0 | 0.00 | 0.00 | 0.00 | 68 | 1013.5 |
| 20260507091859 | 16 | 118 | 1.6 | 8.0 | 0.00 | 0.00 | 0.00 | 73 | 1013.6 |
| 20260507091401 | 16 | 87 | 1.6 | 6.4 | 0.00 | 0.00 | 0.00 | 72 | 1013.6 |
| 20260507090955 | 15 | 100 | 3.2 | 8.0 | 0.00 | 0.00 | 0.00 | 71 | 1013.7 |
| 20260507085859 | 15 | 69 | 1.6 | 9.7 | 0.00 | 0.00 | 0.00 | 76 | 1013.6 |
| 20260507085400 | 14 | 114 | 1.6 | 9.7 | 0.00 | 0.00 | 0.00 | 75 | 1013.5 |
| 20260507085205 | 14 | 97 | 4.8 | 8.0 | 0.00 | 0.00 | 0.00 | 75 | 1013.6 |
| 20260507084358 | 14 | 86 | 1.6 | 6.4 | 0.00 | 0.00 | 0.00 | 76 | 1013.6 |
| 20260507083859 | 14 | 90 | 3.2 | 6.4 | 0.00 | 0.00 | 0.00 | 74 | 1013.7 |
| 20260507083358 | 14 | 90 | 1.6 | 9.7 | 0.00 | 0.00 | 0.00 | 76 | 1013.7 |
| 20260507082859 | 14 | 116 | 1.6 | 9.7 | 0.00 | 0.00 | 0.00 | 76 | 1013.7 |
| 20260507082358 | 14 | 107 | 4.8 | 6.4 | 0.00 | 0.00 | 0.00 | 79 | 1013.7 |
| 20260507081859 | 14 | 92 | 1.6 | 6.4 | 0.00 | 0.00 | 0.00 | 80 | 1013.6 |
| 20260507081359 | 13 | 97 | 1.6 | 6.4 | 0.00 | 0.00 | 0.00 | 81 | 1013.6 |
| 20260507080859 | 13 | 111 | 4.8 | 6.4 | 0.00 | 0.00 | 0.00 | 79 | 1013.7 |
| 20260507080357 | 14 | 92 | 1.6 | 4.8 | 0.00 | 0.00 | 0.00 | 81 | 1013.7 |
| 20260507080203 | 13 | 106 | 1.6 | 4.8 | 0.00 | 0.00 | 0.00 | 79 | 1013.7 |
| 20260507075358 | 13 | 89 | 1.6 | 4.8 | 0.00 | 0.00 | 0.00 | 81 | 1013.7 |
| 20260507074857 | 13 | 172 | 0.0 | 4.8 | 0.00 | 0.00 | 0.00 | 82 | 1013.7 |
| 20260507074358 | 13 | 87 | 1.6 | 6.4 | 0.00 | 0.00 | 0.00 | 81 | 1013.7 |
| 20260507073856 | 13 | 107 | 3.2 | 8.0 | 0.00 | 0.00 | 0.00 | 84 | 1013.6 |
| 20260507073358 | 13 | 94 | 3.2 | 8.0 | 0.00 | 0.00 | 0.00 | 82 | 1013.6 |
| 20260507072857 | 13 | 68 | 1.6 | 4.8 | 0.00 | 0.00 | 0.00 | 85 | 1013.5 |
| 20260507072356 | 13 | 87 | 0.0 | 3.2 | 0.00 | 0.00 | 0.00 | 87 | 1013.5 |
| 20260507071857 | 12 | 252 | 0.0 | 6.4 | 0.00 | 0.00 | 0.00 | 90 | 1013.5 |
| 20260507071356 | 12 | 243 | 0.0 | 6.4 | 0.00 | 0.00 | 0.00 | 89 | 1013.5 |
| 20260507070859 | 12 | 76 | 1.6 | 4.8 | 0.00 | 0.00 | 0.00 | 90 | 1013.6 |
| 20260507070358 | 12 | 90 | 0.0 | 3.2 | 0.00 | 0.00 | 0.00 | 94 | 1013.6 |
| 20260507065857 | 11 | 80 | 0.0 | 1.6 | 0.00 | 0.00 | 0.00 | 96 | 1013.6 |
| 20260507065355 | 11 | 75 | 0.0 | 1.6 | 0.00 | 0.00 | 0.00 | 96 | 1013.6 |
| 20260507064857 | 10 | 227 | 0.0 | 1.6 | 0.00 | 0.00 | 0.00 | 95 | 1013.6 |
| 20260507064706 | 11 | 217 | 0.0 | 3.2 | 0.00 | 0.00 | 0.00 | 96 | 1013.6 |
| 20260507064203 | 11 | 83 | 0.0 | 3.2 | 0.00 | 0.00 | 0.00 | 97 | 1013.7 |
| 20260507063658 | 10 | 149 | 0.0 | 1.6 | 0.00 | 0.00 | 0.00 | 97 | 1013.7 |
| 20260507063205 | 10 | 149 | 0.0 | 1.6 | 0.00 | 0.00 | 0.00 | 97 | 1013.6 |
| 20260507062355 | 9 | 200 | 0.0 | 1.6 | 0.00 | 0.00 | 0.00 | 97 | 1013.6 |
| 20260507062322 | 8 | 351 | 0.0 | 0.0 | 0.00 | 0.00 | 0.00 | 98 | 1013.5 |
| 20260507062316 | 9 | 96 | 0.0 | 1.6 | 0.00 | 0.00 | 0.00 | 98 | 1013.5 |
| 20260507060855 | 8 | 351 | 0.0 | 0.0 | 0.00 | 0.00 | 0.00 | 98 | 1013.6 |
| 20260507060356 | 7 | 351 | 0.0 | 0.0 | 0.00 | 0.00 | 0.00 | 97 | 1013.6 |
| 20260507055855 | 7 | 351 | 0.0 | 1.6 | 0.00 | 0.00 | 0.00 | 97 | 1013.6 |
| 20260507055705 | 7 | 351 | 0.0 | 1.6 | 0.00 | 0.00 | 0.00 | 97 | 1013.5 |
| 20260507055013 | 7 | 351 | 0.0 | 0.0 | 0.00 | 0.00 | 0.00 | 97 | 1013.5 |
| 20260507054945 | 7 | 351 | 0.0 | 0.0 | 0.00 | 0.00 | 0.00 | 97 | 1013.5 |
| 20260507053854 | 6 | 353 | 0.0 | 0.0 | 0.00 | 0.00 | 0.00 | 97 | 1013.5 |
| 20260507053700 | 6 | 351 | 0.0 | 0.0 | 0.00 | 0.00 | 0.00 | 97 | 1013.6 |
| 20260507052854 | 6 | 353 | 0.0 | 0.0 | 0.00 | 0.00 | 0.00 | 97 | 1013.4 |
| 20260507052354 | 6 | 353 | 0.0 | 1.6 | 0.00 | 0.00 | 0.00 | 97 | 1013.4 |
| 20260507051854 | 6 | 353 | 0.0 | 1.6 | 0.00 | 0.00 | 0.00 | 97 | 1013.3 |
| 20260507051354 | 6 | 295 | 0.0 | 0.0 | 0.00 | 0.00 | 0.00 | 97 | 1013.3 |
| 20260507050855 | 6 | 295 | 0.0 | 0.0 | 0.00 | 0.00 | 0.00 | 97 | 1013.3 |
| 20260507050353 | 6 | 295 | 0.0 | 0.0 | 0.00 | 0.00 | 0.00 | 96 | 1013.2 |
| 20260507045853 | 6 | 295 | 0.0 | 0.0 | 0.00 | 0.00 | 0.00 | 96 | 1013.2 |
| 20260507045354 | 6 | 295 | 0.0 | 0.0 | 0.00 | 0.00 | 0.00 | 96 | 1013.1 |
| 20260507044853 | 6 | 295 | 0.0 | 0.0 | 0.00 | 0.00 | 0.00 | 96 | 1013.1 |
| 20260507044355 | 6 | 295 | 0.0 | 0.0 | 0.00 | 0.00 | 0.00 | 97 | 1012.9 |
| 20260507043855 | 6 | 295 | 0.0 | 0.0 | 0.00 | 0.00 | 0.00 | 97 | 1012.9 |
| 20260507043352 | 6 | 295 | 0.0 | 0.0 | 0.00 | 0.00 | 0.00 | 96 | 1012.9 |
| 20260507042853 | 6 | 295 | 0.0 | 0.0 | 0.00 | 0.00 | 0.00 | 96 | 1012.9 |
| 20260507042703 | 6 | 295 | 0.0 | 1.6 | 0.00 | 0.00 | 0.00 | 97 | 1013.0 |
| 20260507042011 | 6 | 295 | 1.6 | 1.6 | 0.00 | 0.00 | 0.00 | 96 | 1013.1 |
| 20260507041944 | 6 | 295 | 1.6 | 1.6 | 0.00 | 0.00 | 0.00 | 96 | 1013.0 |
| 20260507040853 | 6 | 295 | 0.0 | 0.0 | 0.00 | 0.00 | 0.00 | 96 | 1013.1 |
| 20260507040405 | 6 | 295 | 0.0 | 0.0 | 0.00 | 0.00 | 0.00 | 96 | 1013.0 |
| 20260507035853 | 6 | 295 | 0.0 | 0.0 | 0.00 | 0.00 | 0.00 | 96 | 1013.1 |
| 20260507035349 | 6 | 295 | 0.0 | 0.0 | 0.00 | 0.00 | 0.00 | 96 | 1013.2 |
| 20260507034851 | 6 | 295 | 0.0 | 0.0 | 0.00 | 0.00 | 0.00 | 96 | 1013.1 |
| 20260507034703 | 6 | 295 | 0.0 | 0.0 | 0.00 | 0.00 | 0.00 | 96 | 1013.2 |
| 20260507033905 | 6 | 295 | 0.0 | 1.6 | 0.00 | 0.00 | 0.00 | 96 | 1013.2 |
| 20260507033355 | 6 | 295 | 0.0 | 1.6 | 0.00 | 0.00 | 0.00 | 96 | 1013.2 |
| 20260507032851 | 7 | 295 | 0.0 | 0.0 | 0.00 | 0.00 | 0.00 | 96 | 1013.2 |
| 20260507032352 | 7 | 295 | 0.0 | 0.0 | 0.00 | 0.00 | 0.00 | 96 | 1013.2 |
| 20260507031851 | 7 | 295 | 0.0 | 0.0 | 0.00 | 0.00 | 0.00 | 96 | 1013.2 |
| 20260507031352 | 7 | 295 | 0.0 | 1.6 | 0.00 | 0.00 | 0.00 | 96 | 1013.2 |
| 20260507030850 | 7 | 295 | 0.0 | 1.6 | 0.00 | 0.03 | 0.00 | 96 | 1013.3 |
| 20260507030351 | 7 | 295 | 0.0 | 1.6 | 0.00 | 0.03 | 0.00 | 96 | 1013.2 |
| 20260507030016 | 7 | 295 | 0.0 | 1.6 | 0.00 | 0.03 | 0.00 | 96 | 1013.3 |
| 20260507025947 | 7 | 295 | 0.0 | 1.6 | 0.00 | 0.03 | 0.00 | 96 | 1013.3 |
| 20260507024850 | 7 | 295 | 0.0 | 1.6 | 0.00 | 0.03 | 0.00 | 96 | 1013.2 |
| 20260507024350 | 7 | 295 | 0.0 | 0.0 | 0.00 | 0.03 | 0.00 | 96 | 1013.3 |
| 20260507023853 | 7 | 295 | 0.0 | 0.0 | 0.00 | 0.03 | 0.00 | 96 | 1013.2 |
| 20260507023351 | 7 | 295 | 0.0 | 0.0 | 0.00 | 0.03 | 0.00 | 96 | 1013.2 |
| 20260507022848 | 7 | 295 | 0.0 | 0.0 | 0.00 | 0.03 | 0.00 | 96 | 1013.2 |
| 20260507022350 | 7 | 295 | 0.0 | 0.0 | 0.00 | 0.03 | 0.00 | 96 | 1013.3 |
| 20260507021849 | 7 | 295 | 0.0 | 0.0 | 0.00 | 0.03 | 0.00 | 96 | 1013.3 |
| 20260507021350 | 7 | 295 | 0.0 | 0.0 | 0.00 | 0.03 | 0.00 | 96 | 1013.3 |
| 20260507020850 | 7 | 295 | 0.0 | 0.0 | 0.00 | 0.03 | 0.00 | 95 | 1013.4 |
| 20260507020350 | 7 | 295 | 0.0 | 0.0 | 0.00 | 0.03 | 0.00 | 95 | 1013.4 |
| 20260507015849 | 7 | 295 | 0.0 | 0.0 | 0.00 | 0.03 | 0.00 | 95 | 1013.4 |
| 20260507015659 | 7 | 295 | 0.0 | 0.0 | 0.00 | 0.03 | 0.00 | 95 | 1013.4 |
| 20260507014849 | 7 | 295 | 0.0 | 0.0 | 0.00 | 0.03 | 0.00 | 95 | 1013.4 |
| 20260507014350 | 7 | 295 | 0.0 | 0.0 | 0.00 | 0.03 | 0.00 | 95 | 1013.4 |
| 20260507013848 | 7 | 295 | 0.0 | 1.6 | 0.00 | 0.03 | 0.00 | 95 | 1013.5 |
| 20260507013349 | 7 | 295 | 0.0 | 1.6 | 0.00 | 0.03 | 0.00 | 95 | 1013.5 |
| 20260507012848 | 7 | 295 | 0.0 | 0.0 | 0.00 | 0.03 | 0.00 | 95 | 1013.5 |
| 20260507012657 | 7 | 295 | 0.0 | 0.0 | 0.00 | 0.03 | 0.00 | 95 | 1013.4 |
| 20260507011850 | 7 | 295 | 0.0 | 0.0 | 0.00 | 0.03 | 0.00 | 95 | 1013.4 |
| 20260507011350 | 7 | 295 | 0.0 | 0.0 | 0.00 | 0.03 | 0.00 | 95 | 1013.5 |
| 20260507010850 | 7 | 295 | 0.0 | 0.0 | 0.00 | 0.03 | 0.00 | 95 | 1013.5 |
| 20260507010348 | 7 | 295 | 0.0 | 0.0 | 0.00 | 0.03 | 0.00 | 95 | 1013.6 |
| 20260507005849 | 7 | 295 | 0.0 | 0.0 | 0.00 | 0.03 | 0.00 | 95 | 1013.5 |
| 20260507005347 | 7 | 295 | 0.0 | 0.0 | 0.00 | 0.03 | 0.00 | 95 | 1013.6 |
| 20260507004847 | 7 | 295 | 0.0 | 0.0 | 0.00 | 0.03 | 0.00 | 95 | 1013.7 |
| 20260507004348 | 7 | 295 | 0.0 | 0.0 | 0.00 | 0.03 | 0.00 | 94 | 1013.7 |
| 20260507003847 | 8 | 295 | 0.0 | 0.0 | 0.00 | 0.03 | 0.00 | 95 | 1013.7 |
| 20260507003348 | 8 | 295 | 0.0 | 0.0 | 0.00 | 0.03 | 0.00 | 95 | 1013.7 |
| 20260507002846 | 8 | 295 | 0.0 | 0.0 | 0.00 | 0.03 | 0.00 | 94 | 1013.7 |
| 20260507002349 | 8 | 295 | 0.0 | 0.0 | 0.00 | 0.03 | 0.00 | 94 | 1013.8 |
| 20260507001847 | 8 | 295 | 0.0 | 0.0 | 0.00 | 0.03 | 0.00 | 94 | 1013.8 |
| 20260507001348 | 8 | 295 | 0.0 | 0.0 | 0.00 | 0.03 | 0.00 | 94 | 1013.8 |
| 20260507000847 | 8 | 295 | 0.0 | 0.0 | 0.00 | 0.03 | 0.00 | 94 | 1013.9 |
| 20260507000347 | 8 | 295 | 0.0 | 0.0 | 0.00 | 0.03 | 0.00 | 94 | 1013.9 |
| 20260506235847 | 8 | 295 | 0.0 | 0.0 | 0.00 | 0.03 | 0.00 | 94 | 1013.9 |
| 20260506235347 | 8 | 295 | 0.0 | 0.0 | 0.00 | 0.03 | 0.00 | 94 | 1013.9 |
| 20260506235204 | 8 | 295 | 0.0 | 0.0 | 0.00 | 0.03 | 0.00 | 94 | 1013.9 |
| 20260506234346 | 8 | 295 | 0.0 | 0.0 | 0.00 | 0.03 | 0.00 | 94 | 1013.9 |
| 20260506233847 | 8 | 295 | 0.0 | 0.0 | 0.00 | 0.03 | 0.00 | 94 | 1014.0 |
| 20260506233346 | 8 | 295 | 0.0 | 0.0 | 0.00 | 0.03 | 0.00 | 94 | 1013.9 |
| 20260506232846 | 8 | 295 | 0.0 | 1.6 | 0.00 | 0.03 | 0.00 | 93 | 1013.9 |
| 20260506232701 | 8 | 295 | 0.0 | 1.6 | 0.00 | 0.03 | 0.00 | 93 | 1014.0 |
| 20260506231845 | 8 | 295 | 0.0 | 1.6 | 0.00 | 0.03 | 0.00 | 93 | 1014.1 |
| 20260506231346 | 8 | 295 | 0.0 | 1.6 | 0.00 | 0.03 | 0.00 | 93 | 1014.1 |
| 20260506231208 | 9 | 295 | 0.0 | 0.0 | 0.00 | 0.03 | 0.00 | 93 | 1014.0 |
| 20260506230346 | 9 | 295 | 0.0 | 0.0 | 0.00 | 0.03 | 0.00 | 93 | 1013.9 |
| 20260506230157 | 9 | 295 | 0.0 | 0.0 | 0.00 | 0.03 | 0.00 | 92 | 1013.9 |
| 20260506225656 | 9 | 295 | 0.0 | 0.0 | 0.00 | 0.03 | 0.00 | 92 | 1013.9 |
| 20260506224846 | 9 | 295 | 0.0 | 0.0 | 0.00 | 0.03 | 0.00 | 92 | 1013.9 |
| 20260506224345 | 9 | 295 | 0.0 | 0.0 | 0.00 | 0.03 | 0.00 | 92 | 1013.9 |
| 20260506223845 | 9 | 295 | 0.0 | 0.0 | 0.00 | 0.03 | 0.00 | 91 | 1013.9 |
| 20260506223345 | 10 | 295 | 0.0 | 0.0 | 0.00 | 0.03 | 0.00 | 91 | 1013.8 |
| 20260506222846 | 10 | 295 | 0.0 | 0.0 | 0.00 | 0.03 | 0.00 | 91 | 1013.9 |
| 20260506222344 | 10 | 295 | 0.0 | 0.0 | 0.00 | 0.03 | 0.00 | 91 | 1013.9 |
| 20260506221846 | 10 | 295 | 0.0 | 0.0 | 0.00 | 0.03 | 0.00 | 91 | 1013.9 |
| 20260506221344 | 10 | 295 | 0.0 | 0.0 | 0.00 | 0.03 | 0.00 | 90 | 1013.9 |
| 20260506220847 | 10 | 295 | 0.0 | 0.0 | 0.00 | 0.03 | 0.00 | 90 | 1013.9 |
| 20260506220345 | 10 | 295 | 0.0 | 0.0 | 0.00 | 0.03 | 0.00 | 89 | 1013.9 |
| 20260506215845 | 10 | 295 | 0.0 | 0.0 | 0.00 | 0.03 | 0.03 | 89 | 1013.9 |
| 20260506215704 | 10 | 295 | 0.0 | 0.0 | 0.00 | 0.03 | 0.03 | 88 | 1013.9 |
| 20260506214846 | 10 | 295 | 0.0 | 0.0 | 0.00 | 0.03 | 0.03 | 88 | 1013.9 |
| 20260506214346 | 10 | 295 | 0.0 | 0.0 | 0.00 | 0.03 | 0.03 | 87 | 1013.8 |
| 20260506213843 | 10 | 295 | 0.0 | 0.0 | 0.00 | 0.03 | 0.03 | 87 | 1013.9 |
| 20260506213347 | 11 | 295 | 0.0 | 0.0 | 0.00 | 0.03 | 0.03 | 87 | 1013.9 |
| 20260506212844 | 11 | 295 | 0.0 | 0.0 | 0.00 | 0.03 | 0.03 | 86 | 1013.8 |
| 20260506212342 | 11 | 295 | 0.0 | 0.0 | 0.00 | 0.03 | 0.03 | 86 | 1013.9 |
| 20260506211843 | 11 | 295 | 0.0 | 0.0 | 0.00 | 0.03 | 0.03 | 86 | 1013.8 |
| 20260506211345 | 11 | 295 | 0.0 | 1.6 | 0.00 | 0.03 | 0.03 | 85 | 1013.8 |
| 20260506210843 | 11 | 28 | 0.0 | 1.6 | 0.00 | 0.03 | 0.03 | 86 | 1013.9 |
| 20260506210344 | 12 | 262 | 0.0 | 3.2 | 0.00 | 0.03 | 0.03 | 86 | 1013.9 |
| 20260506205845 | 12 | 262 | 0.0 | 3.2 | 0.00 | 0.03 | 0.03 | 86 | 1014.0 |
| 20260506205702 | 12 | 259 | 0.0 | 4.8 | 0.00 | 0.03 | 0.03 | 86 | 1014.0 |
| 20260506204846 | 12 | 279 | 0.0 | 8.0 | 0.00 | 0.03 | 0.03 | 85 | 1014.0 |
| 20260506204344 | 12 | 312 | 3.2 | 8.0 | 0.00 | 0.03 | 0.03 | 85 | 1013.9 |
| 20260506203842 | 12 | 296 | 1.6 | 4.8 | 0.00 | 0.03 | 0.03 | 85 | 1013.8 |
| 20260506203343 | 12 | 306 | 0.0 | 4.8 | 0.00 | 0.03 | 0.03 | 86 | 1013.6 |
| 20260506203207 | 12 | 289 | 0.0 | 4.8 | 0.00 | 0.03 | 0.03 | 86 | 1013.7 |
| 20260506202658 | 12 | 283 | 0.0 | 1.6 | 0.00 | 0.03 | 0.03 | 87 | 1013.5 |
| 20260506201843 | 11 | 283 | 0.0 | 0.0 | 0.00 | 0.03 | 0.03 | 87 | 1013.5 |
| 20260506201343 | 11 | 283 | 0.0 | 0.0 | 0.00 | 0.03 | 0.03 | 87 | 1013.4 |
| 20260506200843 | 11 | 283 | 0.0 | 0.0 | 0.00 | 0.03 | 0.03 | 87 | 1013.3 |
| 20260506200345 | 11 | 283 | 0.0 | 0.0 | 0.00 | 0.03 | 0.03 | 87 | 1013.3 |
| 20260506195841 | 12 | 283 | 0.0 | 0.0 | 0.00 | 0.03 | 0.03 | 86 | 1013.2 |
| 20260506195341 | 12 | 283 | 0.0 | 0.0 | 0.00 | 0.03 | 0.03 | 86 | 1013.3 |
| 20260506194842 | 12 | 283 | 0.0 | 0.0 | 0.00 | 0.03 | 0.03 | 85 | 1013.1 |
| 20260506194706 | 12 | 283 | 0.0 | 1.6 | 0.00 | 0.03 | 0.03 | 85 | 1013.1 |
| 20260506193842 | 12 | 283 | 0.0 | 1.6 | 0.00 | 0.03 | 0.03 | 85 | 1013.0 |
| 20260506193341 | 12 | 282 | 0.0 | 1.6 | 0.00 | 0.03 | 0.03 | 84 | 1012.8 |
| 20260506192843 | 12 | 271 | 0.0 | 0.0 | 0.00 | 0.03 | 0.03 | 84 | 1012.9 |
| 20260506192340 | 12 | 269 | 0.0 | 0.0 | 0.00 | 0.03 | 0.03 | 83 | 1012.8 |
| 20260506191843 | 12 | 271 | 0.0 | 0.0 | 0.00 | 0.03 | 0.03 | 83 | 1012.7 |
| 20260506191340 | 12 | 269 | 0.0 | 0.0 | 0.00 | 0.03 | 0.03 | 83 | 1012.6 |
| 20260506190841 | 13 | 269 | 0.0 | 1.6 | 0.00 | 0.03 | 0.03 | 83 | 1012.5 |
| 20260506190341 | 13 | 271 | 0.0 | 1.6 | 0.00 | 0.03 | 0.03 | 82 | 1012.5 |
| 20260506185840 | 13 | 271 | 0.0 | 1.6 | 0.00 | 0.03 | 0.03 | 81 | 1012.5 |
| 20260506185340 | 13 | 269 | 0.0 | 0.0 | 0.00 | 0.03 | 0.03 | 81 | 1012.4 |
| 20260506184840 | 13 | 271 | 0.0 | 1.6 | 0.00 | 0.03 | 0.03 | 81 | 1012.3 |
| 20260506184703 | 13 | 271 | 0.0 | 1.6 | 0.00 | 0.03 | 0.03 | 80 | 1012.3 |
| 20260506184038 | 13 | 271 | 0.0 | 1.6 | 0.00 | 0.03 | 0.03 | 80 | 1012.2 |
| 20260506183952 | 13 | 271 | 0.0 | 1.6 | 0.00 | 0.03 | 0.03 | 79 | 1012.3 |
| 20260506182841 | 13 | 271 | 0.0 | 3.2 | 0.00 | 0.03 | 0.03 | 80 | 1012.1 |
| 20260506182339 | 13 | 268 | 0.0 | 3.2 | 0.00 | 0.03 | 0.03 | 78 | 1012.1 |
| 20260506181838 | 13 | 282 | 0.0 | 6.4 | 0.00 | 0.03 | 0.03 | 78 | 1012.1 |
| 20260506181339 | 14 | 293 | 0.0 | 6.4 | 0.00 | 0.03 | 0.03 | 77 | 1012.0 |
| 20260506180839 | 14 | 317 | 0.0 | 8.0 | 0.00 | 0.03 | 0.03 | 76 | 1011.9 |
| 20260506180340 | 14 | 317 | 1.6 | 9.7 | 0.00 | 0.03 | 0.03 | 76 | 1011.9 |
| 20260506175839 | 14 | 275 | 1.6 | 9.7 | 0.00 | 0.03 | 0.03 | 76 | 1011.8 |
| 20260506175337 | 14 | 271 | 1.6 | 4.8 | 0.00 | 0.03 | 0.03 | 76 | 1011.8 |
| 20260506174838 | 14 | 300 | 1.6 | 4.8 | 0.00 | 0.03 | 0.03 | 76 | 1011.8 |
| 20260506174337 | 14 | 271 | 0.0 | 11.3 | 0.00 | 0.03 | 0.03 | 75 | 1011.8 |
| 20260506173837 | 14 | 268 | 3.2 | 11.3 | 0.00 | 0.03 | 0.03 | 74 | 1011.6 |
| 20260506173342 | 14 | 281 | 3.2 | 6.4 | 0.00 | 0.03 | 0.03 | 75 | 1011.6 |
| 20260506172837 | 14 | 305 | 1.6 | 8.0 | 0.00 | 0.03 | 0.03 | 75 | 1011.6 |
| 20260506172643 | 14 | 288 | 1.6 | 9.7 | 0.00 | 0.03 | 0.03 | 74 | 1011.6 |
| 20260506172159 | 14 | 309 | 1.6 | 9.7 | 0.00 | 0.03 | 0.03 | 74 | 1011.6 |
| 20260506171339 | 14 | 274 | 0.0 | 11.3 | 0.00 | 0.03 | 0.03 | 74 | 1011.5 |
| 20260506170839 | 14 | 272 | 3.2 | 14.5 | 0.00 | 0.03 | 0.03 | 72 | 1011.4 |
| 20260506170338 | 14 | 293 | 4.8 | 14.5 | 0.00 | 0.03 | 0.03 | 72 | 1011.3 |
| 20260506165839 | 15 | 310 | 4.8 | 22.5 | 0.00 | 0.03 | 0.03 | 70 | 1011.3 |
| 20260506165338 | 15 | 302 | 8.0 | 22.5 | 0.00 | 0.03 | 0.03 | 69 | 1011.3 |
| 20260506164838 | 15 | 288 | 3.2 | 11.3 | 0.00 | 0.03 | 0.03 | 70 | 1011.2 |
| 20260506164338 | 15 | 48 | 3.2 | 11.3 | 0.00 | 0.03 | 0.03 | 70 | 1011.1 |
| 20260506163836 | 15 | 298 | 3.2 | 16.1 | 0.00 | 0.03 | 0.03 | 71 | 1011.1 |
| 20260506163337 | 15 | 296 | 6.4 | 16.1 | 0.00 | 0.03 | 0.03 | 71 | 1011.1 |
| 20260506162835 | 15 | 316 | 6.4 | 16.1 | 0.00 | 0.03 | 0.03 | 71 | 1011.0 |
| 20260506162657 | 15 | 306 | 8.0 | 16.1 | 0.00 | 0.05 | 0.03 | 69 | 1010.9 |